sensor_id;sensor_type;location;lat;lon;timestamp;pressure;altitude;pressure_sealevel;temperature
58307;BMP280;44116;50.884;4.768;2023-03-01T00:00:00;102530.0;;;-2.6
58307;BMP280;44116;50.884;4.768;2023-03-01T00:02:00;102530.0;;;-2.6
58307;BMP280;44116;50.884;4.768;2023-03-01T00:03:59;102540.00000000001;;;-2.7
58307;BMP280;44116;50.884;4.768;2023-03-01T00:05:59;102530.0;;;-2.7
58307;BMP280;44116;50.884;4.768;2023-03-01T00:07:58;102530.0;;;-2.9
58307;BMP280;44116;50.884;4.768;2023-03-01T00:09:58;102530.0;;;-2.8
58307;BMP280;44116;50.884;4.768;2023-03-01T00:11:57;102530.0;;;-2.8
58307;BMP280;44116;50.884;4.768;2023-03-01T00:13:57;102530.0;;;-2.8
58307;BMP280;44116;50.884;4.768;2023-03-01T00:15:56;102520.0;;;-2.8
58307;BMP280;44116;50.884;4.768;2023-03-01T00:17:55;102520.0;;;-2.9
58307;BMP280;44116;50.884;4.768;2023-03-01T00:19:55;102530.0;;;-2.9
58307;BMP280;44116;50.884;4.768;2023-03-01T00:21:54;102520.0;;;-2.9
58307;BMP280;44116;50.884;4.768;2023-03-01T00:23:54;102530.0;;;-3.0
58307;BMP280;44116;50.884;4.768;2023-03-01T00:27:53;102520.0;;;-3.1
58307;BMP280;44116;50.884;4.768;2023-03-01T00:29:52;102520.0;;;-3.0
58307;BMP280;44116;50.884;4.768;2023-03-01T00:31:51;102520.0;;;-3.0
58307;BMP280;44116;50.884;4.768;2023-03-01T00:33:52;102520.0;;;-3.1
58307;BMP280;44116;50.884;4.768;2023-03-01T00:35:50;102520.0;;;-3.0
58307;BMP280;44116;50.884;4.768;2023-03-01T00:47:47;102520.0;;;-3.2
58307;BMP280;44116;50.884;4.768;2023-03-01T00:49:46;102509.99999999999;;;-3.4
58307;BMP280;44116;50.884;4.768;2023-03-01T00:51:46;102520.0;;;-3.4
58307;BMP280;44116;50.884;4.768;2023-03-01T00:53:45;102520.0;;;-3.4
58307;BMP280;44116;50.884;4.768;2023-03-01T00:55:45;102520.0;;;-3.4
58307;BMP280;44116;50.884;4.768;2023-03-01T00:57:44;102520.0;;;-3.6
58307;BMP280;44116;50.884;4.768;2023-03-01T00:59:44;102520.0;;;-3.4
58307;BMP280;44116;50.884;4.768;2023-03-01T01:01:43;102520.0;;;-3.4
58307;BMP280;44116;50.884;4.768;2023-03-01T01:03:43;102520.0;;;-3.3
58307;BMP280;44116;50.884;4.768;2023-03-01T01:05:42;102530.0;;;-3.3
58307;BMP280;44116;50.884;4.768;2023-03-01T01:07:41;102520.0;;;-3.3
58307;BMP280;44116;50.884;4.768;2023-03-01T01:09:40;102520.0;;;-3.3
58307;BMP280;44116;50.884;4.768;2023-03-01T01:11:40;102520.0;;;-3.3
58307;BMP280;44116;50.884;4.768;2023-03-01T01:13:39;102520.0;;;-3.4
58307;BMP280;44116;50.884;4.768;2023-03-01T01:15:39;102520.0;;;-3.4
58307;BMP280;44116;50.884;4.768;2023-03-01T01:19:38;102520.0;;;-3.3
58307;BMP280;44116;50.884;4.768;2023-03-01T01:21:37;102509.99999999999;;;-3.3
58307;BMP280;44116;50.884;4.768;2023-03-01T01:23:37;102509.99999999999;;;-3.3
58307;BMP280;44116;50.884;4.768;2023-03-01T01:25:36;102509.99999999999;;;-3.3
58307;BMP280;44116;50.884;4.768;2023-03-01T01:27:35;102509.99999999999;;;-3.4
58307;BMP280;44116;50.884;4.768;2023-03-01T01:29:35;102500.0;;;-3.3
58307;BMP280;44116;50.884;4.768;2023-03-01T01:31:35;102500.0;;;-3.3
58307;BMP280;44116;50.884;4.768;2023-03-01T01:33:34;102490.00000000001;;;-3.2
58307;BMP280;44116;50.884;4.768;2023-03-01T01:35:33;102500.0;;;-3.3
58307;BMP280;44116;50.884;4.768;2023-03-01T01:37:32;102490.00000000001;;;-3.2
58307;BMP280;44116;50.884;4.768;2023-03-01T01:39:32;102500.0;;;-3.3
58307;BMP280;44116;50.884;4.768;2023-03-01T01:41:31;102500.0;;;-3.2
58307;BMP280;44116;50.884;4.768;2023-03-01T01:43:31;102490.00000000001;;;-3.1
58307;BMP280;44116;50.884;4.768;2023-03-01T01:47:29;102490.00000000001;;;-3.3
58307;BMP280;44116;50.884;4.768;2023-03-01T01:49:31;102490.00000000001;;;-3.3
58307;BMP280;44116;50.884;4.768;2023-03-01T01:51:29;102490.00000000001;;;-3.4
58307;BMP280;44116;50.884;4.768;2023-03-01T01:53:27;102480.0;;;-3.3
58307;BMP280;44116;50.884;4.768;2023-03-01T01:55:27;102480.0;;;-3.3
58307;BMP280;44116;50.884;4.768;2023-03-01T01:57:27;102480.0;;;-3.3
58307;BMP280;44116;50.884;4.768;2023-03-01T01:59:26;102470.0;;;-3.4
58307;BMP280;44116;50.884;4.768;2023-03-01T02:01:25;102470.0;;;-3.4
58307;BMP280;44116;50.884;4.768;2023-03-01T02:03:26;102470.0;;;-3.5
58307;BMP280;44116;50.884;4.768;2023-03-01T02:05:25;102459.99999999999;;;-3.5
58307;BMP280;44116;50.884;4.768;2023-03-01T02:07:23;102470.0;;;-3.5
58307;BMP280;44116;50.884;4.768;2023-03-01T02:09:23;102459.99999999999;;;-3.5
58307;BMP280;44116;50.884;4.768;2023-03-01T02:11:22;102450.0;;;-3.5
58307;BMP280;44116;50.884;4.768;2023-03-01T02:15:21;102450.0;;;-3.5
58307;BMP280;44116;50.884;4.768;2023-03-01T02:17:20;102450.0;;;-3.5
58307;BMP280;44116;50.884;4.768;2023-03-01T02:19:23;102440.00000000001;;;-3.5
58307;BMP280;44116;50.884;4.768;2023-03-01T02:21:25;102430.0;;;-3.5
58307;BMP280;44116;50.884;4.768;2023-03-01T02:23:19;102440.00000000001;;;-3.6
58307;BMP280;44116;50.884;4.768;2023-03-01T02:25:24;102440.00000000001;;;-3.7
58307;BMP280;44116;50.884;4.768;2023-03-01T02:27:18;102440.00000000001;;;-3.5
58307;BMP280;44116;50.884;4.768;2023-03-01T02:29:17;102430.0;;;-3.6
58307;BMP280;44116;50.884;4.768;2023-03-01T02:31:17;102430.0;;;-3.6
58307;BMP280;44116;50.884;4.768;2023-03-01T02:33:16;102430.0;;;-3.7
58307;BMP280;44116;50.884;4.768;2023-03-01T02:37:15;102430.0;;;-3.7
58307;BMP280;44116;50.884;4.768;2023-03-01T02:39:15;102420.0;;;-3.7
58307;BMP280;44116;50.884;4.768;2023-03-01T02:43:13;102420.0;;;-3.8
58307;BMP280;44116;50.884;4.768;2023-03-01T02:45:12;102420.0;;;-3.7
58307;BMP280;44116;50.884;4.768;2023-03-01T02:47:12;102420.0;;;-3.7
58307;BMP280;44116;50.884;4.768;2023-03-01T02:49:17;102409.99999999999;;;-3.6
58307;BMP280;44116;50.884;4.768;2023-03-01T02:51:14;102409.99999999999;;;-3.7
58307;BMP280;44116;50.884;4.768;2023-03-01T02:53:10;102420.0;;;-3.8
58307;BMP280;44116;50.884;4.768;2023-03-01T02:55:10;102409.99999999999;;;-3.7
58307;BMP280;44116;50.884;4.768;2023-03-01T02:57:09;102420.0;;;-3.8
58307;BMP280;44116;50.884;4.768;2023-03-01T02:59:08;102420.0;;;-3.8
58307;BMP280;44116;50.884;4.768;2023-03-01T03:01:08;102420.0;;;-3.8
58307;BMP280;44116;50.884;4.768;2023-03-01T03:03:07;102409.99999999999;;;-3.7
58307;BMP280;44116;50.884;4.768;2023-03-01T03:05:07;102409.99999999999;;;-3.9
58307;BMP280;44116;50.884;4.768;2023-03-01T03:07:06;102409.99999999999;;;-3.9
58307;BMP280;44116;50.884;4.768;2023-03-01T03:09:05;102409.99999999999;;;-3.9
58307;BMP280;44116;50.884;4.768;2023-03-01T03:11:04;102409.99999999999;;;-3.9
58307;BMP280;44116;50.884;4.768;2023-03-01T03:13:05;102409.99999999999;;;-3.9
58307;BMP280;44116;50.884;4.768;2023-03-01T03:15:04;102409.99999999999;;;-3.8
58307;BMP280;44116;50.884;4.768;2023-03-01T03:17:03;102400.0;;;-3.8
58307;BMP280;44116;50.884;4.768;2023-03-01T03:19:02;102409.99999999999;;;-3.8
58307;BMP280;44116;50.884;4.768;2023-03-01T03:21:01;102409.99999999999;;;-3.7
58307;BMP280;44116;50.884;4.768;2023-03-01T03:23:01;102409.99999999999;;;-3.8
58307;BMP280;44116;50.884;4.768;2023-03-01T03:25:00;102409.99999999999;;;-3.8
58307;BMP280;44116;50.884;4.768;2023-03-01T03:26:59;102409.99999999999;;;-4.1
58307;BMP280;44116;50.884;4.768;2023-03-01T03:28:59;102420.0;;;-4.0
58307;BMP280;44116;50.884;4.768;2023-03-01T03:30:58;102420.0;;;-4.2
58307;BMP280;44116;50.884;4.768;2023-03-01T03:32:58;102420.0;;;-4.1
58307;BMP280;44116;50.884;4.768;2023-03-01T03:36:57;102420.0;;;-3.9
58307;BMP280;44116;50.884;4.768;2023-03-01T03:38:56;102430.0;;;-4.0
58307;BMP280;44116;50.884;4.768;2023-03-01T03:40:59;102430.0;;;-4.0
58307;BMP280;44116;50.884;4.768;2023-03-01T03:42:55;102430.0;;;-3.9
58307;BMP280;44116;50.884;4.768;2023-03-01T03:44:54;102420.0;;;-4.1
58307;BMP280;44116;50.884;4.768;2023-03-01T03:46:53;102420.0;;;-4.1
58307;BMP280;44116;50.884;4.768;2023-03-01T03:48:53;102409.99999999999;;;-4.2
58307;BMP280;44116;50.884;4.768;2023-03-01T03:50:53;102409.99999999999;;;-4.0
58307;BMP280;44116;50.884;4.768;2023-03-01T03:52:52;102409.99999999999;;;-4.1
58307;BMP280;44116;50.884;4.768;2023-03-01T03:54:51;102409.99999999999;;;-4.0
58307;BMP280;44116;50.884;4.768;2023-03-01T03:56:50;102409.99999999999;;;-4.0
58307;BMP280;44116;50.884;4.768;2023-03-01T03:58:50;102409.99999999999;;;-4.1
58307;BMP280;44116;50.884;4.768;2023-03-01T04:00:50;102409.99999999999;;;-4.2
58307;BMP280;44116;50.884;4.768;2023-03-01T04:02:49;102400.0;;;-4.2
58307;BMP280;44116;50.884;4.768;2023-03-01T04:04:48;102409.99999999999;;;-4.1
58307;BMP280;44116;50.884;4.768;2023-03-01T04:06:47;102400.0;;;-4.2
58307;BMP280;44116;50.884;4.768;2023-03-01T04:08:47;102390.0;;;-4.3
58307;BMP280;44116;50.884;4.768;2023-03-01T04:10:47;102400.0;;;-4.2
58307;BMP280;44116;50.884;4.768;2023-03-01T04:12:46;102390.0;;;-4.2
58307;BMP280;44116;50.884;4.768;2023-03-01T04:16:44;102390.0;;;-4.1
58307;BMP280;44116;50.884;4.768;2023-03-01T04:18:44;102380.0;;;-4.2
58307;BMP280;44116;50.884;4.768;2023-03-01T04:20:43;102390.0;;;-4.2
58307;BMP280;44116;50.884;4.768;2023-03-01T04:22:43;102390.0;;;-4.2
58307;BMP280;44116;50.884;4.768;2023-03-01T04:26:41;102390.0;;;-4.2
58307;BMP280;44116;50.884;4.768;2023-03-01T04:28:41;102390.0;;;-4.3
58307;BMP280;44116;50.884;4.768;2023-03-01T04:30:40;102380.0;;;-4.4
58307;BMP280;44116;50.884;4.768;2023-03-01T04:32:39;102380.0;;;-4.4
58307;BMP280;44116;50.884;4.768;2023-03-01T04:36:38;102380.0;;;-4.3
58307;BMP280;44116;50.884;4.768;2023-03-01T04:38:38;102390.0;;;-4.3
58307;BMP280;44116;50.884;4.768;2023-03-01T04:40:37;102390.0;;;-4.2
58307;BMP280;44116;50.884;4.768;2023-03-01T04:42:36;102380.0;;;-4.2
58307;BMP280;44116;50.884;4.768;2023-03-01T04:44:36;102380.0;;;-4.2
58307;BMP280;44116;50.884;4.768;2023-03-01T04:46:35;102390.0;;;-4.2
58307;BMP280;44116;50.884;4.768;2023-03-01T04:48:34;102380.0;;;-4.3
58307;BMP280;44116;50.884;4.768;2023-03-01T04:52:33;102380.0;;;-4.3
58307;BMP280;44116;50.884;4.768;2023-03-01T04:54:33;102370.0;;;-4.3
58307;BMP280;44116;50.884;4.768;2023-03-01T04:56:32;102370.0;;;-4.3
58307;BMP280;44116;50.884;4.768;2023-03-01T04:58:31;102370.0;;;-4.2
58307;BMP280;44116;50.884;4.768;2023-03-01T05:00:31;102360.0;;;-4.2
58307;BMP280;44116;50.884;4.768;2023-03-01T05:02:30;102370.0;;;-4.3
58307;BMP280;44116;50.884;4.768;2023-03-01T05:04:30;102360.0;;;-4.3
58307;BMP280;44116;50.884;4.768;2023-03-01T05:06:29;102360.0;;;-4.2
58307;BMP280;44116;50.884;4.768;2023-03-01T05:08:28;102360.0;;;-4.2
58307;BMP280;44116;50.884;4.768;2023-03-01T05:10:28;102370.0;;;-4.3
58307;BMP280;44116;50.884;4.768;2023-03-01T05:12:27;102360.0;;;-4.4
58307;BMP280;44116;50.884;4.768;2023-03-01T05:14:26;102360.0;;;-4.5
58307;BMP280;44116;50.884;4.768;2023-03-01T05:16:26;102360.0;;;-4.3
58307;BMP280;44116;50.884;4.768;2023-03-01T05:18:25;102360.0;;;-4.3
58307;BMP280;44116;50.884;4.768;2023-03-01T05:20:25;102360.0;;;-4.4
58307;BMP280;44116;50.884;4.768;2023-03-01T05:22:24;102350.0;;;-4.6
58307;BMP280;44116;50.884;4.768;2023-03-01T05:24:23;102350.0;;;-4.6
58307;BMP280;44116;50.884;4.768;2023-03-01T05:26:23;102350.0;;;-4.4
58307;BMP280;44116;50.884;4.768;2023-03-01T05:28:22;102340.0;;;-4.6
58307;BMP280;44116;50.884;4.768;2023-03-01T05:32:21;102350.0;;;-4.4
58307;BMP280;44116;50.884;4.768;2023-03-01T05:34:22;102350.0;;;-4.6
58307;BMP280;44116;50.884;4.768;2023-03-01T05:36:19;102340.0;;;-4.6
58307;BMP280;44116;50.884;4.768;2023-03-01T05:38:19;102340.0;;;-4.7
58307;BMP280;44116;50.884;4.768;2023-03-01T05:40:19;102350.0;;;-4.7
58307;BMP280;44116;50.884;4.768;2023-03-01T05:42:18;102350.0;;;-4.8
58307;BMP280;44116;50.884;4.768;2023-03-01T05:44:17;102350.0;;;-4.7
58307;BMP280;44116;50.884;4.768;2023-03-01T05:46:16;102350.0;;;-4.7
58307;BMP280;44116;50.884;4.768;2023-03-01T05:48:16;102350.0;;;-4.7
58307;BMP280;44116;50.884;4.768;2023-03-01T05:50:16;102350.0;;;-4.7
58307;BMP280;44116;50.884;4.768;2023-03-01T05:52:15;102350.0;;;-4.8
58307;BMP280;44116;50.884;4.768;2023-03-01T05:54:14;102340.0;;;-4.7
58307;BMP280;44116;50.884;4.768;2023-03-01T05:56:13;102340.0;;;-4.7
58307;BMP280;44116;50.884;4.768;2023-03-01T05:58:13;102350.0;;;-4.8
58307;BMP280;44116;50.884;4.768;2023-03-01T06:00:13;102350.0;;;-4.8
58307;BMP280;44116;50.884;4.768;2023-03-01T06:02:11;102340.0;;;-4.9
58307;BMP280;44116;50.884;4.768;2023-03-01T06:06:10;102340.0;;;-4.8
58307;BMP280;44116;50.884;4.768;2023-03-01T06:08:10;102340.0;;;-4.8
58307;BMP280;44116;50.884;4.768;2023-03-01T06:10:09;102340.0;;;-4.7
58307;BMP280;44116;50.884;4.768;2023-03-01T06:12:08;102340.0;;;-4.8
58307;BMP280;44116;50.884;4.768;2023-03-01T06:14:07;102340.0;;;-4.8
58307;BMP280;44116;50.884;4.768;2023-03-01T06:20:07;102330.0;;;-4.9
58307;BMP280;44116;50.884;4.768;2023-03-01T06:22:05;102330.0;;;-5.0
58307;BMP280;44116;50.884;4.768;2023-03-01T06:24:04;102330.0;;;-4.8
58307;BMP280;44116;50.884;4.768;2023-03-01T06:26:05;102330.0;;;-4.8
58307;BMP280;44116;50.884;4.768;2023-03-01T06:28:03;102330.0;;;-4.9
58307;BMP280;44116;50.884;4.768;2023-03-01T06:30:03;102330.0;;;-4.9
58307;BMP280;44116;50.884;4.768;2023-03-01T06:32:02;102330.0;;;-4.9
58307;BMP280;44116;50.884;4.768;2023-03-01T06:34:01;102330.0;;;-5.0
58307;BMP280;44116;50.884;4.768;2023-03-01T06:36:00;102320.0;;;-5.1
58307;BMP280;44116;50.884;4.768;2023-03-01T06:38:00;102320.0;;;-5.1
58307;BMP280;44116;50.884;4.768;2023-03-01T06:39:59;102320.0;;;-5.1
58307;BMP280;44116;50.884;4.768;2023-03-01T06:41:59;102320.0;;;-5.0
58307;BMP280;44116;50.884;4.768;2023-03-01T06:43:58;102320.0;;;-4.9
58307;BMP280;44116;50.884;4.768;2023-03-01T06:45:57;102320.0;;;-5.0
58307;BMP280;44116;50.884;4.768;2023-03-01T06:49:56;102320.0;;;-5.1
58307;BMP280;44116;50.884;4.768;2023-03-01T06:51:55;102320.0;;;-4.9
58307;BMP280;44116;50.884;4.768;2023-03-01T06:55:55;102330.0;;;-4.8
58307;BMP280;44116;50.884;4.768;2023-03-01T06:57:54;102340.0;;;-5.0
58307;BMP280;44116;50.884;4.768;2023-03-01T06:59:53;102340.0;;;-5.0
58307;BMP280;44116;50.884;4.768;2023-03-01T07:01:52;102330.0;;;-5.0
58307;BMP280;44116;50.884;4.768;2023-03-01T07:03:52;102340.0;;;-4.9
58307;BMP280;44116;50.884;4.768;2023-03-01T07:05:51;102330.0;;;-4.9
58307;BMP280;44116;50.884;4.768;2023-03-01T07:07:50;102340.0;;;-4.9
58307;BMP280;44116;50.884;4.768;2023-03-01T07:09:50;102340.0;;;-4.8
58307;BMP280;44116;50.884;4.768;2023-03-01T07:11:49;102340.0;;;-4.8
58307;BMP280;44116;50.884;4.768;2023-03-01T07:13:48;102340.0;;;-4.8
58307;BMP280;44116;50.884;4.768;2023-03-01T07:17:47;102340.0;;;-4.8
58307;BMP280;44116;50.884;4.768;2023-03-01T07:19:47;102350.0;;;-4.8
58307;BMP280;44116;50.884;4.768;2023-03-01T07:21:46;102340.0;;;-4.8
58307;BMP280;44116;50.884;4.768;2023-03-01T07:23:46;102340.0;;;-4.4
58307;BMP280;44116;50.884;4.768;2023-03-01T07:25:47;102340.0;;;-4.5
58307;BMP280;44116;50.884;4.768;2023-03-01T07:27:48;102340.0;;;-4.4
58307;BMP280;44116;50.884;4.768;2023-03-01T07:29:43;102340.0;;;-4.5
58307;BMP280;44116;50.884;4.768;2023-03-01T07:31:43;102330.0;;;-4.4
58307;BMP280;44116;50.884;4.768;2023-03-01T07:33:42;102330.0;;;-4.4
58307;BMP280;44116;50.884;4.768;2023-03-01T07:35:41;102340.0;;;-4.1
58307;BMP280;44116;50.884;4.768;2023-03-01T07:37:41;102340.0;;;-4.0
58307;BMP280;44116;50.884;4.768;2023-03-01T07:39:40;102340.0;;;-4.0
58307;BMP280;44116;50.884;4.768;2023-03-01T07:41:39;102340.0;;;-3.9
58307;BMP280;44116;50.884;4.768;2023-03-01T07:43:39;102340.0;;;-3.9
58307;BMP280;44116;50.884;4.768;2023-03-01T07:45:38;102330.0;;;-3.8
58307;BMP280;44116;50.884;4.768;2023-03-01T07:47:38;102340.0;;;-3.8
58307;BMP280;44116;50.884;4.768;2023-03-01T07:49:37;102330.0;;;-3.7
58307;BMP280;44116;50.884;4.768;2023-03-01T07:53:36;102330.0;;;-3.6
58307;BMP280;44116;50.884;4.768;2023-03-01T07:55:35;102340.0;;;-3.5
58307;BMP280;44116;50.884;4.768;2023-03-01T07:57:35;102330.0;;;-3.4
58307;BMP280;44116;50.884;4.768;2023-03-01T07:59:34;102330.0;;;-3.4
58307;BMP280;44116;50.884;4.768;2023-03-01T08:03:33;102330.0;;;-3.3
58307;BMP280;44116;50.884;4.768;2023-03-01T08:05:32;102340.0;;;-3.2
58307;BMP280;44116;50.884;4.768;2023-03-01T08:07:32;102330.0;;;-3.1
58307;BMP280;44116;50.884;4.768;2023-03-01T08:09:31;102330.0;;;-3.0
58307;BMP280;44116;50.884;4.768;2023-03-01T08:11:30;102320.0;;;-3.0
58307;BMP280;44116;50.884;4.768;2023-03-01T08:13:30;102330.0;;;-2.9
58307;BMP280;44116;50.884;4.768;2023-03-01T08:15:29;102330.0;;;-2.8
58307;BMP280;44116;50.884;4.768;2023-03-01T08:17:28;102330.0;;;-2.8
58307;BMP280;44116;50.884;4.768;2023-03-01T08:19:28;102340.0;;;-2.7
58307;BMP280;44116;50.884;4.768;2023-03-01T08:21:27;102340.0;;;-2.7
58307;BMP280;44116;50.884;4.768;2023-03-01T08:23:27;102340.0;;;-2.6
58307;BMP280;44116;50.884;4.768;2023-03-01T08:25:26;102340.0;;;-2.5
58307;BMP280;44116;50.884;4.768;2023-03-01T08:27:25;102340.0;;;-2.4
58307;BMP280;44116;50.884;4.768;2023-03-01T08:29:25;102340.0;;;-2.4
58307;BMP280;44116;50.884;4.768;2023-03-01T08:31:26;102340.0;;;-2.3
58307;BMP280;44116;50.884;4.768;2023-03-01T08:33:24;102340.0;;;-2.2
58307;BMP280;44116;50.884;4.768;2023-03-01T08:35:23;102330.0;;;-2.2
58307;BMP280;44116;50.884;4.768;2023-03-01T08:37:22;102330.0;;;-2.1
58307;BMP280;44116;50.884;4.768;2023-03-01T08:39:22;102330.0;;;-2.0
58307;BMP280;44116;50.884;4.768;2023-03-01T08:43:21;102330.0;;;-1.9
58307;BMP280;44116;50.884;4.768;2023-03-01T08:45:20;102320.0;;;-1.9
58307;BMP280;44116;50.884;4.768;2023-03-01T08:47:19;102320.0;;;-1.9
58307;BMP280;44116;50.884;4.768;2023-03-01T08:49:19;102320.0;;;-1.8
58307;BMP280;44116;50.884;4.768;2023-03-01T08:51:19;102310.0;;;-1.8
58307;BMP280;44116;50.884;4.768;2023-03-01T08:53:18;102310.0;;;-1.7
58307;BMP280;44116;50.884;4.768;2023-03-01T08:55:17;102300.0;;;-1.7
58307;BMP280;44116;50.884;4.768;2023-03-01T08:57:17;102310.0;;;-1.6
58307;BMP280;44116;50.884;4.768;2023-03-01T08:59:16;102310.0;;;-1.5
58307;BMP280;44116;50.884;4.768;2023-03-01T09:01:17;102310.0;;;-1.5
58307;BMP280;44116;50.884;4.768;2023-03-01T09:03:15;102310.0;;;-1.4
58307;BMP280;44116;50.884;4.768;2023-03-01T09:11:14;102290.0;;;-1.1
58307;BMP280;44116;50.884;4.768;2023-03-01T09:13:12;102290.0;;;-1.0
58307;BMP280;44116;50.884;4.768;2023-03-01T09:15:11;102290.0;;;-0.9
58307;BMP280;44116;50.884;4.768;2023-03-01T09:17:11;102290.0;;;-0.9
58307;BMP280;44116;50.884;4.768;2023-03-01T09:19:11;102290.0;;;-0.9
58307;BMP280;44116;50.884;4.768;2023-03-01T09:21:10;102290.0;;;-0.8
58307;BMP280;44116;50.884;4.768;2023-03-01T09:23:09;102290.0;;;-0.7
58307;BMP280;44116;50.884;4.768;2023-03-01T09:27:08;102290.0;;;-0.5
58307;BMP280;44116;50.884;4.768;2023-03-01T09:29:08;102280.0;;;-0.4
58307;BMP280;44116;50.884;4.768;2023-03-01T09:31:07;102280.0;;;-0.3
58307;BMP280;44116;50.884;4.768;2023-03-01T09:33:06;102270.0;;;-0.3
58307;BMP280;44116;50.884;4.768;2023-03-01T09:35:07;102260.0;;;-0.3
58307;BMP280;44116;50.884;4.768;2023-03-01T09:37:05;102260.0;;;-0.2
58307;BMP280;44116;50.884;4.768;2023-03-01T09:39:05;102250.0;;;-0.0
58307;BMP280;44116;50.884;4.768;2023-03-01T09:41:09;102250.0;;;0.0
58307;BMP280;44116;50.884;4.768;2023-03-01T09:43:05;102250.0;;;0.1
58307;BMP280;44116;50.884;4.768;2023-03-01T09:45:04;102240.0;;;0.2
58307;BMP280;44116;50.884;4.768;2023-03-01T09:47:05;102240.0;;;0.3
58307;BMP280;44116;50.884;4.768;2023-03-01T09:51:02;102230.0;;;0.6
58307;BMP280;44116;50.884;4.768;2023-03-01T09:53:02;102230.0;;;0.6
58307;BMP280;44116;50.884;4.768;2023-03-01T09:55:00;102230.0;;;0.6
58307;BMP280;44116;50.884;4.768;2023-03-01T09:57:05;102240.0;;;0.6
58307;BMP280;44116;50.884;4.768;2023-03-01T09:59:02;102230.0;;;0.6
58307;BMP280;44116;50.884;4.768;2023-03-01T10:00:59;102230.0;;;0.8
58307;BMP280;44116;50.884;4.768;2023-03-01T10:03:00;102220.0;;;0.9
58307;BMP280;44116;50.884;4.768;2023-03-01T10:07:01;102220.0;;;1.0
58307;BMP280;44116;50.884;4.768;2023-03-01T10:08:57;102220.0;;;1.1
58307;BMP280;44116;50.884;4.768;2023-03-01T10:10:57;102220.0;;;1.3
58307;BMP280;44116;50.884;4.768;2023-03-01T10:12:56;102210.0;;;1.3
58307;BMP280;44116;50.884;4.768;2023-03-01T10:14:57;102210.0;;;1.2
58307;BMP280;44116;50.884;4.768;2023-03-01T10:16:55;102210.0;;;1.5
58307;BMP280;44116;50.884;4.768;2023-03-01T10:18:55;102210.0;;;1.5
58307;BMP280;44116;50.884;4.768;2023-03-01T10:20:55;102210.0;;;1.6
58307;BMP280;44116;50.884;4.768;2023-03-01T10:22:53;102200.0;;;1.5
58307;BMP280;44116;50.884;4.768;2023-03-01T10:24:53;102200.0;;;1.5
58307;BMP280;44116;50.884;4.768;2023-03-01T10:26:54;102200.0;;;1.6
58307;BMP280;44116;50.884;4.768;2023-03-01T10:28:54;102190.0;;;1.5
58307;BMP280;44116;50.884;4.768;2023-03-01T10:30:51;102200.0;;;1.6
58307;BMP280;44116;50.884;4.768;2023-03-01T10:32:51;102190.0;;;1.6
58307;BMP280;44116;50.884;4.768;2023-03-01T10:34:50;102190.0;;;1.7
58307;BMP280;44116;50.884;4.768;2023-03-01T10:36:50;102190.0;;;2.0
58307;BMP280;44116;50.884;4.768;2023-03-01T10:38:50;102190.0;;;1.9
58307;BMP280;44116;50.884;4.768;2023-03-01T10:40:50;102190.0;;;2.0
58307;BMP280;44116;50.884;4.768;2023-03-01T10:42:49;102180.0;;;2.1
58307;BMP280;44116;50.884;4.768;2023-03-01T10:44:48;102180.0;;;2.1
58307;BMP280;44116;50.884;4.768;2023-03-01T10:46:47;102180.0;;;2.2
58307;BMP280;44116;50.884;4.768;2023-03-01T10:48:50;102170.0;;;2.3
58307;BMP280;44116;50.884;4.768;2023-03-01T10:50:47;102170.0;;;2.3
58307;BMP280;44116;50.884;4.768;2023-03-01T10:52:55;102160.0;;;2.3
58307;BMP280;44116;50.884;4.768;2023-03-01T10:54:50;102170.0;;;2.5
58307;BMP280;44116;50.884;4.768;2023-03-01T10:56:47;102160.0;;;2.4
58307;BMP280;44116;50.884;4.768;2023-03-01T11:00:46;102160.0;;;2.3
58307;BMP280;44116;50.884;4.768;2023-03-01T11:02:45;102160.0;;;2.6
58307;BMP280;44116;50.884;4.768;2023-03-01T11:06:42;102160.0;;;2.7
58307;BMP280;44116;50.884;4.768;2023-03-01T11:08:42;102160.0;;;2.8
58307;BMP280;44116;50.884;4.768;2023-03-01T11:10:41;102150.0;;;2.6
58307;BMP280;44116;50.884;4.768;2023-03-01T11:12:41;102150.0;;;2.8
58307;BMP280;44116;50.884;4.768;2023-03-01T11:14:45;102150.0;;;2.9
58307;BMP280;44116;50.884;4.768;2023-03-01T11:16:40;102150.0;;;2.7
58307;BMP280;44116;50.884;4.768;2023-03-01T11:18:39;102140.0;;;2.7
58307;BMP280;44116;50.884;4.768;2023-03-01T11:20:39;102140.0;;;2.8
58307;BMP280;44116;50.884;4.768;2023-03-01T11:22:40;102140.0;;;2.7
58307;BMP280;44116;50.884;4.768;2023-03-01T11:24:39;102140.0;;;2.7
58307;BMP280;44116;50.884;4.768;2023-03-01T11:26:38;102140.0;;;3.1
58307;BMP280;44116;50.884;4.768;2023-03-01T11:28:38;102150.0;;;2.8
58307;BMP280;44116;50.884;4.768;2023-03-01T11:30:38;102140.0;;;3.0
58307;BMP280;44116;50.884;4.768;2023-03-01T11:32:38;102140.0;;;3.0
58307;BMP280;44116;50.884;4.768;2023-03-01T11:34:38;102140.0;;;2.9
58307;BMP280;44116;50.884;4.768;2023-03-01T11:36:35;102140.0;;;2.9
58307;BMP280;44116;50.884;4.768;2023-03-01T11:38:35;102130.0;;;3.2
58307;BMP280;44116;50.884;4.768;2023-03-01T11:40:35;102140.0;;;3.1
58307;BMP280;44116;50.884;4.768;2023-03-01T11:42:39;102140.0;;;2.9
58307;BMP280;44116;50.884;4.768;2023-03-01T11:44:34;102130.0;;;3.1
58307;BMP280;44116;50.884;4.768;2023-03-01T11:48:36;102120.0;;;3.2
58307;BMP280;44116;50.884;4.768;2023-03-01T11:50:34;102120.0;;;3.2
58307;BMP280;44116;50.884;4.768;2023-03-01T11:52:34;102120.0;;;3.3
58307;BMP280;44116;50.884;4.768;2023-03-01T11:54:35;102110.0;;;3.3
58307;BMP280;44116;50.884;4.768;2023-03-01T11:56:31;102110.0;;;3.4
58307;BMP280;44116;50.884;4.768;2023-03-01T11:58:35;102120.0;;;3.7
58307;BMP280;44116;50.884;4.768;2023-03-01T12:00:36;102110.0;;;3.6
58307;BMP280;44116;50.884;4.768;2023-03-01T12:02:37;102120.0;;;3.5
58307;BMP280;44116;50.884;4.768;2023-03-01T12:06:31;102100.0;;;3.6
58307;BMP280;44116;50.884;4.768;2023-03-01T12:10:28;102090.0;;;3.7
58307;BMP280;44116;50.884;4.768;2023-03-01T12:12:29;102080.0;;;3.6
58307;BMP280;44116;50.884;4.768;2023-03-01T12:14:32;102070.0;;;3.6
58307;BMP280;44116;50.884;4.768;2023-03-01T12:16:30;102070.0;;;3.8
58307;BMP280;44116;50.884;4.768;2023-03-01T12:18:29;102070.0;;;3.6
58307;BMP280;44116;50.884;4.768;2023-03-01T12:20:27;102070.0;;;3.7
58307;BMP280;44116;50.884;4.768;2023-03-01T12:22:28;102070.0;;;3.8
58307;BMP280;44116;50.884;4.768;2023-03-01T12:24:29;102070.0;;;3.8
58307;BMP280;44116;50.884;4.768;2023-03-01T12:26:26;102060.0;;;3.8
58307;BMP280;44116;50.884;4.768;2023-03-01T12:28:27;102060.0;;;3.8
58307;BMP280;44116;50.884;4.768;2023-03-01T12:30:25;102050.0;;;3.9
58307;BMP280;44116;50.884;4.768;2023-03-01T12:32:25;102050.0;;;3.9
58307;BMP280;44116;50.884;4.768;2023-03-01T12:34:26;102050.0;;;3.9
58307;BMP280;44116;50.884;4.768;2023-03-01T12:38:25;102050.0;;;4.0
58307;BMP280;44116;50.884;4.768;2023-03-01T12:40:25;102050.0;;;3.7
58307;BMP280;44116;50.884;4.768;2023-03-01T12:42:22;102040.0;;;4.0